ADDS TAF Board (Experimental) INFO

IDs: Format: Expanded Condensed

Updated at: 1442 UTC 24 Nov 2014

KIAH - Houston/Bush Intl, TX, US

Issued at 1120 UTC 24 Nov 2014
Time1353Z24/15Z24/16Z24/17Z24/18Z24/19Z24/20Z24/21Z24/22Z24/23Z25/00Z25/01Z25/02Z25/03Z
TypeOBSPRVLPRVLPRVLPRVLPRVLPRVLPRVLPRVLPRVLPRVLPRVLPRVLPRVL
VIS10>6>6>6>6>6>6>6>6>6>6>6>6>6
CIG----------------------------
CoverFEWSKCSKCSKCSKCSKCSKCSKCSKCSKCSKCSKCSKCSKC
FltCat--VFRVFRVFRVFRVFRVFRVFRVFRVFRVFRVFRVFRVFR
WX----------------------------
WDir340340340340340340340340340340340340360360
WSpd10101010101010101010101055
WGst----------------------------
R08/26
XWnd99999999999955
HWnd-3-3-3-3-3-3-3-3-3-3-3-3-0-0
R09/27
XWnd99999999999955
HWnd-3-3-3-3-3-3-3-3-3-3-3-3-0-0
R15/33
XWnd11111111111122
HWnd-10-10-10-10-10-10-10-10-10-10-10-10-4-4
Raw TAF
KIAH 241120Z 2412/2518 33011KT P6SM SKC
  FM241500 34010KT P6SM SKC
  FM250200 36005KT P6SM SKC
  FM251500 02006KT P6SM SCT250


Raw METAR
KIAH 241353Z 34010KT 10SM FEW250 11/04 A3000 RMK AO2 SLP157 T01110039

TAF Board Legend

Hazard VFR MVFR IFR LIFR
Visibility (sm) >5 3≤X≤5 1≤X<3 <1
Ceiling (100 ft) >30 10≤X≤30 5≤X<10 <5
Wind Speed (kt) <10 10≤X<20 20≤X<30 ≥30
Wind Gust (kt) <15 15≤X<25 25≤X<35 ≥35
Weather No Wx Reported VCTS,-TS,-FZRA TS,FZRA +TS,+FZRA


Page loaded:  14:42 UTC  |   06:42 AM Pacific  |   07:42 AM Mountain  |   08:42 AM Central  |   09:42 AM Eastern

 

ADVISORIES

FORECASTS

FORECASTS

OBSERVATIONS

USER TOOLS

ABOUT US